Time;durP1;ratioP1;P1;durP2;ratioP2;P2;SDS_P1;SDS_P2;PMS_P1;PMS_P2;Temp;Humidity;BMP_temperature;BMP_pressure;BME280_temperature;BME280_humidity;BME280_pressure;Samples;Min_cycle;Max_cycle;Signal;HPM_P1;HPM_P2
2022/06/07 00:01:18;;;;;;;2.15;1.58;;;18.30;62.80;;;18.37;52.36;97611.22;5042556;28;20045;-39
2022/06/07 00:03:46;;;;;;;3.90;2.55;;;18.20;63.00;;;18.37;52.31;97618.47;5042792;28;20067;-39
2022/06/07 00:06:15;;;;;;;2.42;1.75;;;18.20;63.00;;;18.25;52.49;97619.13;5042658;28;20046;-39
2022/06/07 00:08:42;;;;;;;2.90;1.55;;;18.10;63.20;;;18.25;52.53;97621.00;5043060;28;20046;-40
2022/06/07 00:11:11;;;;;;;4.00;1.67;;;18.10;63.20;;;18.30;52.44;97622.03;5042025;28;20057;-42
2022/06/07 00:13:39;;;;;;;2.30;1.70;;;18.20;63.00;;;18.34;52.48;97633.22;5042540;28;20056;-39
2022/06/07 00:16:07;;;;;;;2.30;1.45;;;18.20;62.90;;;18.26;52.39;97631.56;5042434;28;20049;-39
2022/06/07 00:18:35;;;;;;;3.50;1.60;;;18.10;63.10;;;18.06;52.63;97631.59;5042223;28;20233;-39
2022/06/07 00:21:04;;;;;;;1.98;1.35;;;17.90;63.10;;;18.07;52.53;97627.06;5041311;28;20247;-39
2022/06/07 00:23:34;;;;;;;3.20;1.40;;;17.90;63.30;;;17.92;52.86;97631.84;5042419;28;20057;-38
2022/06/07 00:26:03;;;;;;;2.85;1.50;;;17.70;63.60;;;17.88;52.92;97623.34;5042732;28;20052;-39
2022/06/07 00:28:31;;;;;;;2.78;1.55;;;17.70;63.70;;;17.81;53.02;97620.59;5042861;28;20045;-39
2022/06/07 00:30:59;;;;;;;2.35;1.63;;;17.70;63.90;;;17.70;53.37;97626.63;5041360;28;20245;-39
2022/06/07 00:33:27;;;;;;;1.77;1.40;;;17.50;64.40;;;17.62;53.66;97627.66;5042351;28;20166;-39
2022/06/07 00:35:55;;;;;;;2.13;1.35;;;17.50;64.50;;;17.56;53.95;97625.78;5057820;28;20308;-39
2022/06/07 00:38:23;;;;;;;3.10;1.50;;;17.40;65.20;;;17.51;53.86;97620.19;5041135;28;20053;-39
2022/06/07 00:40:51;;;;;;;3.25;1.50;;;17.30;65.50;;;17.57;53.63;97623.94;5042296;28;20348;-39
2022/06/07 00:43:24;;;;;;;2.20;1.45;;;17.40;65.10;;;17.67;53.62;97632.41;5042099;28;20335;-39
2022/06/07 00:45:52;;;;;;;1.60;1.50;;;17.60;64.80;;;17.58;53.95;97633.66;5042066;28;20052;-39
2022/06/07 00:48:21;;;;;;;2.42;1.30;;;17.50;65.30;;;17.65;53.81;97623.72;5041911;28;20348;-39
2022/06/07 00:50:58;;;;;;;1.48;1.38;;;17.50;65.20;;;17.65;54.09;97621.03;5041997;28;20042;-39
2022/06/07 00:53:31;;;;;;;2.05;1.38;;;17.50;65.40;;;17.76;53.69;97633.03;5040826;28;20045;-39
2022/06/07 00:56:12;;;;;;;3.00;1.50;;;17.60;65.10;;;17.79;54.04;97629.94;5041011;28;20055;-39
2022/06/07 00:58:40;;;;;;;3.55;1.60;;;17.60;66.00;;;17.74;54.29;97625.19;5057863;28;20250;-39
2022/06/07 01:01:09;;;;;;;2.45;1.48;;;17.50;66.20;;;17.78;54.29;97626.41;5040739;28;20064;-39
2022/06/07 01:03:41;;;;;;;1.83;1.40;;;17.60;66.50;;;17.68;54.35;97623.28;5057581;28;20064;-39
2022/06/07 01:11:44;;;;;;;1.55;1.45;;;17.50;66.30;;;17.80;54.11;97618.13;5041940;28;20055;-39
2022/06/07 01:14:13;;;;;;;1.40;1.17;;;17.50;66.50;;;17.82;54.28;97611.50;5040583;28;20049;-39
2022/06/07 01:16:41;;;;;;;1.80;1.20;;;17.60;66.50;;;17.83;54.63;97609.63;5041883;28;20055;-39
2022/06/07 01:19:10;;;;;;;1.50;1.40;;;17.50;66.80;;;17.83;54.32;97615.00;5024907;28;20057;-39
2022/06/07 01:21:41;;;;;;;1.55;1.35;;;17.60;66.80;;;17.79;54.42;97614.59;5041006;28;20049;-39
2022/06/07 01:24:14;;;;;;;2.30;1.30;;;17.40;66.90;;;17.74;54.67;97613.56;5040773;28;20056;-39
2022/06/07 01:27:01;;;;;;;2.03;1.50;;;17.40;68.40;;;17.69;55.07;97612.31;5041114;28;20053;-39
2022/06/07 01:29:29;;;;;;;2.78;1.38;;;17.40;68.30;;;17.66;54.97;97614.59;5023978;28;20049;-39
2022/06/07 01:31:58;;;;;;;1.85;1.35;;;17.30;68.50;;;17.64;54.98;97611.28;5040988;28;20386;-39
2022/06/07 01:34:27;;;;;;;1.88;1.50;;;17.30;68.80;;;17.59;55.30;97616.47;5039800;28;20051;-39
2022/06/07 01:36:58;;;;;;;2.15;1.35;;;17.30;69.00;;;17.53;55.71;97623.50;5056835;28;20056;-39
2022/06/07 01:42:16;;;;;;;1.33;1.20;;;17.10;70.60;;;17.46;56.45;97612.72;5041600;28;20064;-39
2022/06/07 01:44:49;;;;;;;2.53;1.25;;;17.10;71.80;;;17.46;56.48;97612.72;5041633;28;20045;-39
2022/06/07 01:47:25;;;;;;;2.30;1.50;;;17.10;72.20;;;17.39;56.72;97605.69;5041973;28;20061;-39
2022/06/07 01:49:57;;;;;;;1.67;1.58;;;17.00;72.60;;;17.36;56.68;97609.63;5040214;28;20051;-39
2022/06/07 01:52:29;;;;;;;1.75;1.65;;;17.00;72.50;;;17.36;56.97;97606.13;5041208;28;20049;-39
2022/06/07 01:55:10;;;;;;;2.90;1.42;;;17.00;73.00;;;17.35;57.01;97602.59;5056817;28;20343;-39
2022/06/07 01:57:49;;;;;;;2.22;1.45;;;17.00;73.30;;;17.33;56.94;97593.88;5043711;28;20049;-39
2022/06/07 02:00:18;;;;;;;3.50;1.25;;;16.90;73.30;;;17.30;57.11;97584.38;5043272;28;20053;-39
2022/06/07 02:02:48;;;;;;;2.13;1.60;;;16.90;74.20;;;17.29;57.14;97592.63;5061069;28;20366;-40
2022/06/07 02:05:17;;;;;;;2.95;1.40;;;16.90;74.40;;;17.26;57.41;97593.88;5043964;28;20123;-39
2022/06/07 02:07:52;;;;;;;1.50;1.38;;;16.90;74.60;;;17.21;57.35;97588.28;5043475;28;20049;-39
2022/06/07 02:10:26;;;;;;;1.75;1.25;;;16.80;74.90;;;17.16;57.36;97582.69;5043994;28;20049;-39
2022/06/07 02:12:56;;;;;;;1.98;1.40;;;16.80;74.70;;;17.10;56.83;97578.16;5044473;28;20060;-39
2022/06/07 02:15:25;;;;;;;1.40;1.10;;;16.70;73.70;;;17.08;57.06;97581.03;5042965;28;20060;-39
2022/06/07 02:17:53;;;;;;;2.22;1.60;;;16.70;73.90;;;17.06;57.18;97580.41;5043289;28;20049;-39
2022/06/07 02:20:39;;;;;;;1.45;1.15;;;16.70;74.40;;;17.02;57.13;97570.25;5043125;28;20057;-39
2022/06/07 02:23:08;;;;;;;1.33;1.10;;;16.60;74.10;;;17.03;57.48;97574.59;5043701;28;20047;-39
2022/06/07 02:25:43;;;;;;;1.58;1.40;;;16.70;74.40;;;17.02;57.50;97570.25;5043029;28;20055;-39
2022/06/07 02:28:13;;;;;;;1.40;1.10;;;16.70;74.40;;;17.02;57.28;97570.25;5042635;28;20056;-39
2022/06/07 02:30:43;;;;;;;2.30;1.45;;;16.70;74.10;;;17.00;57.04;97565.09;5044373;28;20048;-39
2022/06/07 02:33:12;;;;;;;1.63;1.10;;;16.70;73.40;;;16.98;57.32;97561.75;5043977;28;20057;-39
2022/06/07 02:35:43;;;;;;;1.52;1.42;;;16.60;73.50;;;16.97;57.66;97564.66;5043091;28;20256;-39
2022/06/07 02:38:12;;;;;;;1.10;0.90;;;16.60;74.20;;;16.97;57.32;97557.44;5044217;28;20251;-39
2022/06/07 02:40:43;;;;;;;1.83;1.30;;;16.60;74.20;;;16.97;57.94;97556.59;5043266;28;20198;-39
2022/06/07 02:43:11;;;;;;;2.83;1.33;;;16.70;74.70;;;16.97;57.84;97553.91;5042991;28;20056;-39
2022/06/07 02:45:39;;;;;;;1.73;1.63;;;16.70;74.30;;;16.96;57.17;97561.13;5044140;28;20055;-39
2022/06/07 02:48:09;;;;;;;1.92;1.20;;;16.60;73.40;;;16.97;57.31;97549.34;5044462;28;20163;-39
2022/06/07 02:50:39;;;;;;;1.10;1.00;;;16.70;73.10;;;16.97;56.99;97549.34;5043006;28;20053;-39
2022/06/07 02:53:07;;;;;;;2.15;1.33;;;16.70;72.30;;;16.97;57.02;97548.53;5044149;28;20045;-39
2022/06/07 02:55:36;;;;;;;1.30;1.20;;;16.70;72.50;;;16.94;57.08;97539.00;5042935;28;20053;-39
2022/06/07 02:58:14;;;;;;;1.80;1.10;;;16.60;73.00;;;16.95;56.97;97547.91;5042623;28;20064;-39
2022/06/07 03:00:42;;;;;;;1.42;1.20;;;16.60;72.70;;;16.96;56.72;97541.50;5043885;28;20049;-39
2022/06/07 03:03:11;;;;;;;3.58;1.17;;;16.70;72.20;;;16.95;56.44;97540.66;5043851;28;20041;-39
2022/06/07 03:05:42;;;;;;;1.10;1.00;;;16.60;71.50;;;16.98;56.77;97544.81;5059083;28;20374;-39
2022/06/07 03:08:10;;;;;;;1.15;1.05;;;16.60;71.70;;;16.95;56.72;97543.34;5042518;28;20045;-39
2022/06/07 03:10:38;;;;;;;1.45;1.08;;;16.70;71.90;;;16.95;56.90;97548.72;5042406;28;20069;-39
2022/06/07 03:13:06;;;;;;;1.52;1.10;;;16.60;72.00;;;16.90;57.45;97543.97;5059011;28;20055;-39
2022/06/07 03:15:34;;;;;;;2.95;1.30;;;16.60;73.40;;;16.87;57.32;97549.75;5042437;28;20245;-39
2022/06/07 03:18:04;;;;;;;1.25;1.10;;;16.50;73.30;;;16.90;56.99;97537.75;5042480;28;20050;-39
2022/06/07 03:20:41;;;;;;;3.10;1.40;;;16.60;72.70;;;16.91;57.45;97539.44;5043037;28;20056;-39
2022/06/07 03:23:10;;;;;;;1.67;1.15;;;16.60;72.90;;;16.91;57.07;97539.44;5058814;28;20054;-39
2022/06/07 03:25:41;;;;;;;1.73;1.02;;;16.60;72.50;;;16.93;57.13;97540.88;5042228;28;20056;-39
2022/06/07 03:28:09;;;;;;;2.00;1.20;;;16.70;72.80;;;16.92;57.20;97541.06;5043406;28;20045;-39
2022/06/07 03:30:39;;;;;;;1.70;1.27;;;16.60;72.70;;;16.91;57.07;97539.44;5042660;28;20056;-39
2022/06/07 03:33:09;;;;;;;1.42;1.20;;;16.60;72.70;;;16.88;57.21;97537.94;5042086;28;20055;-39
2022/06/07 03:35:39;;;;;;;1.17;1.08;;;16.50;72.70;;;16.81;57.32;97542.47;5042170;28;20063;-39
2022/06/07 03:38:09;;;;;;;3.88;1.52;;;16.50;72.80;;;16.76;57.19;97536.88;5041719;28;20052;-39
2022/06/07 03:40:44;;;;;;;1.55;1.20;;;16.40;72.60;;;16.74;57.17;97534.38;5058931;28;20049;-39
2022/06/07 03:43:20;;;;;;;1.30;1.20;;;16.50;72.40;;;16.71;57.08;97537.50;5041549;28;20049;-39
2022/06/07 03:45:49;;;;;;;1.55;1.17;;;16.40;72.40;;;16.71;57.30;97540.19;5058232;28;20050;-39
2022/06/07 03:48:17;;;;;;;2.00;1.25;;;16.40;72.50;;;16.72;57.12;97531.06;5058092;28;20045;-39
2022/06/07 03:50:49;;;;;;;2.53;1.27;;;16.40;72.20;;;16.74;57.43;97536.25;5058898;28;20052;-40
2022/06/07 03:53:18;;;;;;;1.33;1.10;;;16.50;72.30;;;16.71;57.16;97531.25;5041797;28;20052;-39
2022/06/07 03:55:47;;;;;;;1.45;1.10;;;16.40;72.30;;;16.68;57.41;97537.06;5058400;28;20052;-39
2022/06/07 03:58:19;;;;;;;1.83;1.17;;;16.40;72.50;;;16.65;57.45;97538.31;5042628;28;20053;-39
2022/06/07 04:00:47;;;;;;;2.75;1.23;;;16.30;72.70;;;16.66;57.57;97548.00;5058696;28;20049;-39
2022/06/07 04:03:15;;;;;;;1.65;1.27;;;16.40;72.70;;;16.69;57.11;97544.94;5041591;28;20052;-40
2022/06/07 04:05:45;;;;;;;1.58;1.15;;;16.50;72.10;;;16.75;57.10;97548.66;5041877;28;20045;-39
2022/06/07 04:08:17;;;;;;;1.80;1.23;;;16.50;71.60;;;16.74;57.30;97547.00;5041588;28;20188;-39
2022/06/07 04:10:57;;;;;;;1.20;1.10;;;16.50;71.80;;;16.71;57.24;97553.63;5041368;28;20048;-39
2022/06/07 04:13:33;;;;;;;2.67;1.13;;;16.50;72.00;;;16.70;57.50;97554.63;5041396;28;20102;-39
2022/06/07 04:16:12;;;;;;;2.72;1.40;;;16.40;72.20;;;16.73;57.22;97562.31;5040804;28;20057;-39
2022/06/07 04:18:48;;;;;;;1.40;1.02;;;16.50;72.70;;;16.75;57.62;97559.41;5040899;28;20051;-39
2022/06/07 04:21:19;;;;;;;1.20;1.10;;;16.50;72.50;;;16.76;57.33;97558.38;5041865;28;20063;-38
2022/06/07 04:23:47;;;;;;;2.38;1.20;;;16.50;72.50;;;16.74;57.27;97563.94;5042336;28;20052;-39
2022/06/07 04:26:27;;;;;;;2.33;1.35;;;16.50;72.40;;;16.74;57.44;97565.81;5041262;28;20063;-39
2022/06/07 04:28:59;;;;;;;1.48;1.27;;;16.50;72.60;;;16.71;57.60;97564.38;5057957;28;20049;-39
2022/06/07 04:31:29;;;;;;;3.67;1.42;;;16.40;72.40;;;16.69;57.56;97561.06;5041010;28;20049;-39
2022/06/07 04:34:05;;;;;;;1.75;1.30;;;16.40;72.70;;;16.69;57.65;97560.19;5041184;28;20053;-39
2022/06/07 04:36:33;;;;;;;1.60;1.20;;;16.40;72.90;;;16.68;58.00;97564.75;5041565;28;20053;-39
2022/06/07 04:39:05;;;;;;;1.30;1.20;;;16.40;73.10;;;16.68;58.06;97566.63;5040547;28;20053;-39
2022/06/07 04:41:40;;;;;;;3.08;1.58;;;16.40;73.40;;;16.68;58.15;97569.31;5041206;28;20059;-39
2022/06/07 04:44:11;;;;;;;2.78;1.45;;;16.40;73.70;;;16.68;58.09;97575.50;5041002;28;20045;-39
2022/06/07 04:46:40;;;;;;;1.92;1.20;;;16.40;73.50;;;16.69;58.09;97569.13;5040177;28;20060;-39
2022/06/07 04:49:08;;;;;;;1.45;1.35;;;16.50;73.30;;;16.70;58.14;97565.38;5041232;28;20055;-39
2022/06/07 04:51:38;;;;;;;2.85;1.23;;;16.50;73.30;;;16.73;58.12;97566.88;5041626;28;20348;-39
2022/06/07 04:54:18;;;;;;;1.42;1.33;;;16.60;73.00;;;16.77;57.94;97572.63;5040567;28;20057;-39
2022/06/07 04:56:48;;;;;;;1.50;1.30;;;16.60;72.90;;;16.83;57.89;97577.25;5041171;28;20056;-40
2022/06/07 04:59:16;;;;;;;3.75;1.40;;;16.70;72.80;;;16.88;58.23;97578.28;5057337;28;20053;-40
2022/06/07 05:01:53;;;;;;;1.88;1.70;;;16.70;72.80;;;16.92;57.94;97584.09;5040486;28;20370;-40
2022/06/07 05:04:25;;;;;;;1.52;1.20;;;16.70;72.40;;;16.95;58.00;97582.88;5040613;28;20049;-39
2022/06/07 05:06:55;;;;;;;1.25;1.15;;;16.80;72.40;;;16.99;57.89;97582.25;5042037;28;20044;-40
2022/06/07 05:09:29;;;;;;;1.85;1.30;;;16.90;72.40;;;17.05;57.81;97586.81;5040334;28;20061;-40
2022/06/07 05:12:11;;;;;;;1.50;1.20;;;17.00;72.30;;;17.12;57.72;97590.34;5041366;28;20053;-40
2022/06/07 05:14:47;;;;;;;1.38;1.20;;;17.00;71.90;;;17.23;57.67;97585.38;5041782;28;20050;-39
2022/06/07 05:17:21;;;;;;;2.60;1.42;;;17.20;71.60;;;17.27;57.32;97590.16;5040701;28;20049;-40
2022/06/07 05:19:54;;;;;;;2.30;1.58;;;17.20;70.90;;;17.33;57.28;97596.56;5040875;28;20060;-39
2022/06/07 05:22:22;;;;;;;1.50;1.40;;;17.20;70.70;;;17.35;57.15;97594.53;5040643;28;20055;-40
2022/06/07 05:24:54;;;;;;;3.78;1.73;;;17.30;70.80;;;17.35;57.01;97594.53;5040445;28;20042;-39
2022/06/07 05:27:36;;;;;;;2.45;1.60;;;17.20;70.70;;;17.36;56.85;97598.84;5041437;28;20235;-40
2022/06/07 05:30:10;;;;;;;2.05;1.17;;;17.20;70.20;;;17.36;56.83;97598.03;5040328;28;20052;-40
2022/06/07 05:32:56;;;;;;;3.53;1.40;;;17.20;70.70;;;17.31;57.10;97602.19;5045173;28;20243;-40
2022/06/07 05:35:34;;;;;;;2.13;1.33;;;17.10;71.20;;;17.32;57.39;97603.00;5044344;28;20076;-39
2022/06/07 05:38:09;;;;;;;2.42;1.83;;;17.10;71.40;;;17.35;57.21;97607.13;5044047;28;20056;-40
2022/06/07 05:40:37;;;;;;;2.22;1.40;;;17.20;71.00;;;17.38;57.25;97618.31;5044131;28;20053;-39
2022/06/07 05:43:06;;;;;;;1.80;1.33;;;17.30;70.90;;;17.42;57.08;97611.50;5044224;28;20077;-40
2022/06/07 05:45:40;;;;;;;1.58;1.20;;;17.40;70.70;;;17.46;56.93;97617.28;5043889;28;20231;-39
2022/06/07 05:48:15;;;;;;;3.35;1.60;;;17.40;70.40;;;17.46;57.04;97612.72;5043863;28;20045;-40
2022/06/07 05:50:51;;;;;;;1.73;1.38;;;17.40;70.50;;;17.44;56.79;97609.41;5044080;28;20052;-40
2022/06/07 05:53:23;;;;;;;3.55;1.35;;;17.30;70.40;;;17.42;56.78;97614.19;5044678;28;20065;-40
2022/06/07 05:55:52;;;;;;;2.38;1.20;;;17.30;70.60;;;17.43;56.98;97615.03;5044298;28;20053;-40
2022/06/07 05:58:20;;;;;;;1.95;1.30;;;17.30;70.60;;;17.46;56.66;97614.59;5060365;28;20060;-40
2022/06/07 06:00:49;;;;;;;3.30;1.52;;;17.30;69.80;;;17.40;56.80;97610.03;5045041;28;20339;-40
2022/06/07 06:03:22;;;;;;;;;;;17.30;70.30;;;17.42;56.79;97610.66;5044522;28;20248;-40
2022/06/07 06:05:51;;;;;;;3.97;1.33;;;17.30;70.20;;;17.45;56.91;97611.09;5044658;28;19923;-39
2022/06/07 06:11:22;;;;;;;3.17;1.38;;;17.40;69.30;;;17.58;56.97;97612.13;5060728;28;20049;-39
2022/06/07 06:14:07;;;;;;;1.58;1.45;;;17.50;70.10;;;17.64;56.55;97612.13;5029939;28;20076;-39
2022/06/07 06:16:38;;;;;;;1.48;1.27;;;17.60;69.60;;;17.64;56.40;97624.75;5043542;28;20049;-40
2022/06/07 06:19:09;;;;;;;1.80;1.50;;;17.60;68.90;;;17.69;56.41;97623.09;5060053;28;20054;-40
2022/06/07 06:21:44;;;;;;;1.48;1.38;;;17.60;69.20;;;17.69;56.46;97623.09;5060497;28;20060;-39
2022/06/07 06:24:15;;;;;;;1.60;1.50;;;17.60;70.00;;;17.62;56.82;97616.06;5043227;28;20283;-40
2022/06/07 06:26:45;;;;;;;1.45;1.13;;;17.60;69.70;;;17.60;56.24;97620.81;5044302;28;20049;-40
2022/06/07 06:29:17;;;;;;;2.03;1.30;;;17.50;69.00;;;17.46;56.60;97622.66;5043401;28;20147;-39
2022/06/07 06:31:48;;;;;;;1.88;1.25;;;17.40;69.20;;;17.42;56.91;97613.34;5043372;28;20247;-39
2022/06/07 06:34:19;;;;;;;2.53;1.38;;;17.40;69.50;;;17.45;56.90;97618.34;5043154;28;20046;-39
2022/06/07 06:36:47;;;;;;;1.60;1.42;;;17.50;69.70;;;17.56;57.04;97624.97;5044228;28;20045;-40
2022/06/07 06:39:24;;;;;;;1.60;1.50;;;17.60;69.50;;;17.65;56.59;97613.78;5042734;28;20060;-40
2022/06/07 06:41:55;;;;;;;1.40;1.00;;;17.70;69.20;;;17.75;56.66;97617.94;5043297;28;20049;-40
2022/06/07 06:44:37;;;;;;;2.22;1.23;;;17.80;68.70;;;17.75;56.76;97616.06;5059784;28;20053;-40
2022/06/07 06:47:07;;;;;;;1.70;1.30;;;17.90;68.80;;;17.81;56.96;97617.09;5043292;28;20049;-40
2022/06/07 06:49:35;;;;;;;1.80;1.70;;;17.90;69.10;;;17.82;57.14;97621.44;5042784;28;20065;-40
2022/06/07 06:52:10;;;;;;;3.45;1.50;;;17.90;69.30;;;17.88;56.55;97621.47;5059893;28;20053;-40
2022/06/07 06:54:38;;;;;;;2.20;1.27;;;18.10;68.40;;;18.01;56.18;97617.94;5042655;28;20053;-39
2022/06/07 06:57:18;;;;;;;1.58;1.40;;;18.20;67.70;;;18.13;55.79;97620.81;5042767;28;20064;-42
2022/06/07 06:59:55;;;;;;;2.45;1.33;;;18.30;67.10;;;18.21;55.78;97625.16;5042632;28;20049;-39
2022/06/07 07:02:23;;;;;;;1.50;1.40;;;18.40;66.60;;;18.15;54.89;97629.53;5043073;28;20060;-40
2022/06/07 07:05:06;;;;;;;2.40;1.33;;;18.40;65.30;;;18.20;55.04;97615.41;5059171;28;20049;-40
2022/06/07 07:07:35;;;;;;;2.75;1.75;;;18.40;65.90;;;18.29;55.01;97614.97;5042240;28;20049;-40
2022/06/07 07:10:05;;;;;;;1.45;1.27;;;18.50;65.00;;;18.32;54.60;97615.59;5043918;28;20045;-40
2022/06/07 07:12:34;;;;;;;2.08;1.38;;;18.50;64.50;;;18.18;54.53;97618.31;5042455;28;20045;-40
2022/06/07 07:15:13;;;;;;;1.90;1.70;;;18.40;64.80;;;18.19;54.45;97614.59;5042500;28;20049;-40
2022/06/07 07:17:51;;;;;;;3.42;1.48;;;18.40;64.40;;;18.22;53.78;97616.03;5041835;28;20056;-40
2022/06/07 07:20:20;;;;;;;1.40;1.30;;;18.40;63.20;;;18.24;54.28;97613.94;5042248;28;20053;-40
2022/06/07 07:22:51;;;;;;;2.40;1.73;;;18.50;64.60;;;18.32;54.00;97611.03;5059582;28;20053;-40
2022/06/07 07:25:21;;;;;;;2.47;1.40;;;18.60;63.40;;;18.49;54.39;97617.63;5042449;28;20045;-40
2022/06/07 07:27:50;;;;;;;2.22;1.30;;;18.80;64.20;;;18.35;53.05;97616.00;5042620;28;20045;-39
2022/06/07 07:30:20;;;;;;;1.38;1.27;;;18.70;61.20;;;18.47;53.48;97621.56;5059026;28;20049;-40
2022/06/07 07:32:48;;;;;;;2.53;1.33;;;18.70;62.60;;;18.66;53.37;97619.84;5043358;28;20152;-40
2022/06/07 07:35:17;;;;;;;2.63;1.55;;;18.90;62.70;;;18.66;52.69;97612.56;5043018;28;20052;-39
2022/06/07 07:38:05;;;;;;;2.80;1.65;;;19.00;61.00;;;18.81;53.20;97625.00;5042843;28;20057;-40
2022/06/07 07:40:40;;;;;;;1.40;1.30;;;19.10;62.50;;;18.70;52.19;97621.88;5058504;28;20051;-40
2022/06/07 07:43:11;;;;;;;1.67;1.58;;;19.00;60.40;;;18.74;53.52;97614.19;5042029;28;20053;-40
2022/06/07 07:45:39;;;;;;;2.10;1.48;;;19.00;62.60;;;18.78;52.73;97611.91;5041655;28;20054;-40
2022/06/07 07:48:12;;;;;;;4.95;1.50;;;19.00;61.50;;;18.53;52.69;97620.69;5042127;28;20056;-39
2022/06/07 07:50:43;;;;;;;1.75;1.42;;;18.80;61.20;;;18.66;53.14;97617.13;5042262;28;20045;-40
2022/06/07 07:53:14;;;;;;;3.08;1.35;;;18.80;62.70;;;18.37;53.89;97622.00;5042806;28;20042;-40
2022/06/07 07:55:48;;;;;;;3.30;1.80;;;18.60;63.50;;;18.44;53.91;97616.59;5041008;28;20049;-40
2022/06/07 07:58:20;;;;;;;2.42;1.73;;;18.50;64.10;;;18.39;54.19;97617.22;5041868;28;20049;-40
2022/06/07 08:00:49;;;;;;;3.85;1.48;;;18.60;64.00;;;18.52;53.99;97608.28;5058583;28;20059;-40
2022/06/07 08:03:19;;;;;;;2.35;1.35;;;18.70;64.40;;;18.50;54.71;97618.44;5057903;28;20055;-40
2022/06/07 08:06:01;;;;;;;1.30;1.20;;;18.70;64.80;;;18.44;54.21;97619.31;5041795;28;20059;-40
2022/06/07 08:08:29;;;;;;;1.50;1.40;;;18.70;63.60;;;18.45;54.55;97612.84;5042252;28;20261;-41
2022/06/07 08:10:57;;;;;;;2.20;1.60;;;18.70;64.40;;;18.36;54.64;97617.66;5042937;28;20049;-39
2022/06/07 08:13:25;;;;;;;2.13;1.92;;;18.70;64.40;;;18.53;53.99;97615.31;5042351;28;20045;-40
2022/06/07 08:15:52;;;;;;;2.05;1.77;;;18.70;63.80;;;18.20;53.91;97615.41;5042417;28;20238;-40
2022/06/07 08:18:23;;;;;;;1.40;1.30;;;18.50;63.50;;;18.18;54.71;97612.91;5042160;28;20239;-40
2022/06/07 08:20:58;;;;;;;2.80;1.70;;;18.40;64.90;;;18.27;54.95;97616.22;5043103;28;20252;-39
2022/06/07 08:23:28;;;;;;;2.40;1.80;;;18.40;65.60;;;18.28;52.77;97617.88;5042262;28;20061;-39
2022/06/07 08:25:57;;;;;;;1.70;1.10;;;18.50;61.70;;;18.32;53.43;97615.59;5042356;28;20045;-40
2022/06/07 08:28:26;;;;;;;3.05;1.23;;;18.40;63.30;;;18.23;53.17;97612.31;5042952;28;20057;-39
2022/06/07 08:30:54;;;;;;;2.70;1.30;;;18.40;62.70;;;18.27;53.33;97608.16;5042418;28;20243;-39
2022/06/07 08:39:03;;;;;;;1.10;1.00;;;18.40;63.40;;;18.26;52.17;97612.72;5041902;28;20262;-46
2022/06/07 08:41:59;;;;;;;2.67;1.20;;;18.50;60.80;;;18.27;52.67;97614.34;5042333;28;20045;-48
2022/06/07 08:44:39;;;;;;;3.72;1.10;;;18.40;61.60;;;18.25;52.98;97600.25;5042000;28;20049;-47
2022/06/07 08:47:29;;;;;;;1.45;1.10;;;18.40;62.30;;;18.24;50.98;97605.84;5041068;28;20051;-51
2022/06/07 08:50:02;;;;;;;2.35;1.00;;;18.50;58.50;;;18.33;49.74;97604.59;5041904;28;20047;-51
2022/06/07 08:52:36;;;;;;;1.20;1.10;;;18.70;56.40;;;18.54;50.47;97605.38;5042227;28;20051;-47
2022/06/07 08:55:20;;;;;;;;;;;18.80;58.20;;;18.61;50.66;97601.63;5042583;28;20486;-49
2022/06/07 08:57:58;;;;;;;3.00;1.10;;;18.90;57.40;;;18.81;49.98;97603.44;5040785;28;20164;-49
2022/06/07 09:00:34;;;;;;;1.23;1.05;;;19.00;56.50;;;18.94;49.80;97607.91;5041867;28;20049;-50
2022/06/07 09:03:52;;;;;;;1.73;1.15;;;19.10;56.80;;;19.05;49.61;97596.44;5040961;28;20041;-47
2022/06/07 09:06:30;;;;;;;2.30;1.52;;;19.30;55.90;;;19.19;49.10;97589.94;5043540;28;20346;-48
2022/06/07 09:08:59;;;;;;;2.83;1.20;;;19.50;56.00;;;19.27;49.10;97584.25;5045851;28;20050;-48
2022/06/07 09:14:39;;;;;;;1.27;1.10;;;19.60;55.20;;;19.41;48.94;97576.06;5045020;28;20068;-51
2022/06/07 09:17:21;;;;;;;2.03;1.30;;;19.70;55.60;;;19.36;47.35;97575.91;5046397;28;20227;-49
2022/06/07 09:19:49;;;;;;;2.08;1.20;;;19.70;53.10;;;19.59;47.95;97568.03;5045863;28;20049;-52
2022/06/07 09:22:38;;;;;;;1.85;1.33;;;19.90;55.00;;;19.57;48.19;97570.13;5045929;28;20041;-49
2022/06/07 09:25:35;;;;;;;1.23;1.13;;;20.00;54.40;;;19.77;47.11;97566.44;5045396;28;20049;-48
2022/06/07 09:28:06;;;;;;;2.42;1.58;;;20.20;51.90;;;19.84;47.10;97565.34;5045104;28;20251;-48
2022/06/07 09:30:40;;;;;;;2.00;1.20;;;20.20;53.30;;;19.72;47.19;97563.59;5045970;28;20052;-47
2022/06/07 09:33:23;;;;;;;1.85;1.17;;;20.10;53.50;;;19.76;47.23;97562.94;5044460;28;20243;-50
2022/06/07 09:35:55;;;;;;;1.60;1.50;;;20.00;54.50;;;19.67;47.52;97562.34;5045321;28;20239;-48
2022/06/07 09:38:29;;;;;;;1.27;1.17;;;19.90;53.90;;;19.68;47.55;97557.78;5044316;28;20053;-52
2022/06/07 09:41:36;;;;;;;1.15;0.98;;;19.90;54.30;;;19.37;46.61;97558.66;5045044;28;20350;-47
2022/06/07 09:44:14;;;;;;;1.55;1.40;;;19.60;54.10;;;19.49;47.76;97559.59;5044406;28;20252;-49
2022/06/07 09:46:46;;;;;;;1.88;1.45;;;19.50;54.90;;;19.52;47.53;97561.03;5045068;28;20240;-48
2022/06/07 09:49:46;;;;;;;2.70;1.48;;;19.60;54.50;;;19.54;47.98;97558.94;5045263;28;20049;-49
2022/06/07 09:52:25;;;;;;;2.55;1.30;;;19.70;55.10;;;19.50;47.97;97561.25;5045291;28;20052;-49
2022/06/07 09:55:12;;;;;;;2.42;1.30;;;19.60;54.90;;;19.36;48.75;97554.31;5044964;28;20058;-50
2022/06/07 09:57:42;;;;;;;1.48;1.38;;;19.50;56.30;;;19.39;48.53;97554.69;5045592;28;20239;-51
2022/06/07 10:00:57;;;;;;;2.20;1.17;;;19.60;56.00;;;19.47;48.61;97561.69;5044047;28;20056;-48
2022/06/07 10:03:33;;;;;;;2.97;1.20;;;19.60;55.40;;;19.59;48.50;97551.81;5045074;28;20052;-52
2022/06/07 10:06:36;;;;;;;1.30;1.20;;;19.70;55.70;;;19.74;48.50;97546.13;5043738;28;20053;-49
2022/06/07 10:09:50;;;;;;;1.33;1.20;;;20.00;55.10;;;19.53;47.13;97546.50;5043753;28;20052;-47
2022/06/07 10:13:03;;;;;;;2.15;1.30;;;19.90;53.90;;;19.53;47.09;97536.50;5044671;28;20053;-49
2022/06/07 10:16:04;;;;;;;1.27;1.17;;;19.70;54.20;;;19.60;47.51;97531.88;5043932;28;20223;-49
2022/06/07 10:19:12;;;;;;;3.45;1.98;;;19.70;54.40;;;19.72;48.01;97532.00;5043759;28;20045;-50
2022/06/07 10:21:59;;;;;;;1.38;1.25;;;19.80;54.80;;;19.86;48.12;97532.69;5045189;28;20053;-48
2022/06/07 10:24:47;;;;;;;5.07;2.15;;;20.00;55.10;;;19.94;47.86;97532.41;5043589;28;20053;-52
2022/06/07 10:27:29;;;;;;;2.13;1.23;;;20.20;53.50;;;20.02;47.48;97526.69;5044643;28;20054;-47
2022/06/07 10:30:17;;;;;;;1.37;1.17;;;20.30;54.00;;;20.16;46.84;97524.69;5044733;28;20047;-49
2022/06/07 10:33:44;;;;;;;1.40;1.30;;;20.60;53.30;;;20.26;46.63;97521.47;5044469;28;20049;-47
2022/06/07 10:36:32;;;;;;;3.13;1.75;;;20.70;51.90;;;20.41;46.53;97518.34;5042586;28;20057;-49
2022/06/07 10:39:20;;;;;;;1.40;1.30;;;20.70;53.10;;;20.48;46.14;97519.09;5044248;28;20045;-49
2022/06/07 10:42:09;;;;;;;1.30;1.20;;;20.80;52.40;;;20.63;46.26;97510.63;5044676;28;20259;-49
2022/06/07 10:44:58;;;;;;;3.45;1.70;;;21.00;51.40;;;20.47;46.48;97512.03;5044280;28;20247;-46
2022/06/07 10:47:59;;;;;;;1.45;1.35;;;20.80;52.50;;;20.42;46.22;97507.31;5052727;28;20059;-51
2022/06/07 10:50:47;;;;;;;1.92;1.10;;;20.70;51.60;;;20.61;46.45;97516.25;5044259;28;20041;-47
2022/06/07 10:53:44;;;;;;;1.52;1.27;;;20.90;52.80;;;20.64;45.17;97513.09;5044066;28;20231;-49
2022/06/07 10:56:29;;;;;;;1.30;1.20;;;20.90;51.50;;;20.49;44.12;97512.66;5044454;28;20339;-50
2022/06/07 10:59:00;;;;;;;1.23;1.13;;;20.80;49.90;;;20.67;45.23;97506.41;5043747;28;20057;-53
2022/06/07 11:01:40;;;;;;;1.08;0.90;;;20.80;51.60;;;20.62;44.74;97519.78;5042551;28;20056;-47
2022/06/07 11:10:30;;;;;;;2.53;1.40;;;20.50;52.50;;;20.43;45.53;97517.09;5043347;28;20307;-47
2022/06/07 11:13:44;;;;;;;3.40;1.60;;;20.40;52.40;;;20.39;46.23;97513.16;5042763;28;20045;-48
2022/06/07 11:16:27;;;;;;;;;;;20.40;52.80;;;20.16;47.00;97511.19;5044096;28;20042;-48
2022/06/07 11:18:55;;;;;;;2.00;1.42;;;20.40;53.50;;;20.36;47.19;97515.53;5042421;28;19917;-50